createdAt,value
2022-12-04T00:00:27.716Z,118.1
2022-12-04T00:02:29.723Z,120.4
2022-12-04T00:07:36.194Z,113.9
2022-12-04T00:09:38.122Z,116.7
2022-12-04T00:11:43.238Z,120.2
2022-12-04T00:13:45.212Z,111.9
2022-12-04T00:15:47.187Z,120.9
2022-12-04T00:17:49.144Z,107.2
2022-12-04T00:21:53.087Z,108.3
2022-12-04T00:23:55.073Z,116.2
2022-12-04T00:26:00.209Z,131.9
2022-12-04T00:28:02.166Z,107.4
2022-12-04T00:30:04.102Z,106.3
2022-12-04T00:32:06.185Z,125.7
2022-12-04T00:34:08.454Z,105.6
2022-12-04T00:36:10.029Z,127.7
2022-12-04T00:38:11.992Z,120
2022-12-04T00:40:17.126Z,117.8
2022-12-04T00:42:19.092Z,116.2
2022-12-04T00:44:21.069Z,115.3
2022-12-04T00:46:23.159Z,109.2
2022-12-04T00:48:24.986Z,121.9
2022-12-04T00:50:26.937Z,126.8
2022-12-04T00:52:28.917Z,129.3
2022-12-04T00:54:34.066Z,126.1
2022-12-04T00:58:38.007Z,115.3
2022-12-04T00:59:40.566Z,119.8
2022-12-04T01:01:42.619Z,116.6
2022-12-04T01:05:46.504Z,110.1
2022-12-04T01:07:51.668Z,117.9
2022-12-04T01:09:53.827Z,117.2
2022-12-04T01:11:55.563Z,113.2
2022-12-04T01:13:57.505Z,148.4
2022-12-04T01:15:59.499Z,121.5
2022-12-04T01:18:01.412Z,118.6
2022-12-04T01:20:03.410Z,138.7
2022-12-04T01:22:08.483Z,121.2
2022-12-04T01:24:10.467Z,124.3
2022-12-04T01:32:18.306Z,119.5
2022-12-04T01:34:20.410Z,124.2
2022-12-04T01:40:29.313Z,124.1
2022-12-04T01:46:35.226Z,117.5
2022-12-04T01:48:37.173Z,127.3
2022-12-04T01:50:42.295Z,127.8
2022-12-04T01:59:05.097Z,123.3
2022-12-04T02:01:09.090Z,131.8
2022-12-04T02:03:12.233Z,122.7
2022-12-04T02:05:14.220Z,123.4
2022-12-04T02:07:16.146Z,117
2022-12-04T02:09:23.048Z,131.2
2022-12-04T02:11:20.077Z,143
2022-12-04T02:13:22.012Z,126.6
2022-12-04T02:17:29.150Z,115.6
2022-12-04T02:19:31.083Z,116.3
2022-12-04T02:25:36.986Z,119.6
2022-12-04T02:27:38.988Z,120
2022-12-04T02:29:40.890Z,102.4
2022-12-04T02:35:49.944Z,110.8
2022-12-04T02:37:51.909Z,122.1
2022-12-04T02:39:54.282Z,120
2022-12-04T02:41:55.835Z,137.5
2022-12-04T02:43:57.815Z,121.6
2022-12-04T02:46:03.034Z,132.9
2022-12-04T02:48:04.890Z,129.2
2022-12-04T02:50:06.834Z,112.5
2022-12-04T02:53:11.354Z,129
2022-12-04T02:55:14.886Z,116.3
2022-12-04T02:59:21.896Z,116.7
2022-12-04T03:03:25.840Z,128.2
2022-12-04T03:07:29.806Z,131.1
2022-12-04T03:09:31.761Z,133.2
2022-12-04T03:11:33.720Z,127.6
2022-12-04T03:15:40.785Z,119.2
2022-12-04T03:17:42.756Z,126.9
2022-12-04T03:19:44.696Z,121
2022-12-04T03:21:46.648Z,120
2022-12-04T03:23:48.605Z,131.7
2022-12-04T03:25:50.586Z,130.7
2022-12-04T03:27:55.681Z,131
2022-12-04T03:29:57.889Z,129.7
2022-12-04T03:31:59.602Z,131.8
2022-12-04T03:34:01.569Z,111.4
2022-12-04T03:36:03.531Z,114.5
2022-12-04T03:38:05.489Z,115
2022-12-04T03:40:07.451Z,129.6
2022-12-04T03:42:12.565Z,136.3
2022-12-04T03:44:14.532Z,119
2022-12-04T03:46:16.564Z,116.4
2022-12-04T03:47:19.060Z,125
2022-12-04T03:49:21.007Z,124.9
2022-12-04T03:51:22.958Z,131.6
2022-12-04T03:53:24.916Z,121.5
2022-12-04T03:55:30.039Z,137.2
2022-12-04T03:57:31.995Z,133.3
2022-12-04T03:59:33.950Z,122.8
2022-12-04T04:01:36.020Z,113.8
2022-12-04T04:05:39.837Z,131.9
2022-12-04T04:21:58.670Z,128.8
2022-12-04T04:24:03.774Z,135.7
2022-12-04T04:26:05.763Z,127.3
2022-12-04T04:28:07.723Z,125.1
2022-12-04T04:30:09.684Z,106.6
2022-12-04T04:32:11.625Z,144
2022-12-04T04:34:13.598Z,115.7
2022-12-04T04:36:15.573Z,117.7
2022-12-04T04:38:20.677Z,116.4
2022-12-04T04:40:22.628Z,113.8
2022-12-04T04:42:24.597Z,109.1
2022-12-04T04:43:27.162Z,112
2022-12-04T04:45:29.151Z,104.6
2022-12-04T04:47:31.111Z,134.7
2022-12-04T04:49:33.072Z,117.7
2022-12-04T04:53:40.166Z,108.5
2022-12-04T04:55:42.120Z,109.5
2022-12-04T04:57:44.089Z,125
2022-12-04T04:59:46.031Z,115.2
2022-12-04T05:03:49.968Z,107.2
2022-12-04T05:05:55.084Z,125.5
2022-12-04T05:07:57.117Z,121.1
2022-12-04T05:09:59.329Z,142.1
2022-12-04T05:12:00.962Z,107.6
2022-12-04T05:14:02.928Z,117.6
2022-12-04T05:16:04.933Z,114.5
2022-12-04T05:18:06.870Z,103.9
2022-12-04T05:20:11.954Z,130.1
2022-12-04T05:22:13.905Z,115.1
2022-12-04T05:24:15.897Z,126.4
2022-12-04T05:26:17.859Z,117.1
2022-12-04T05:28:19.786Z,131.5
2022-12-04T05:30:21.793Z,129.8
2022-12-04T05:32:23.734Z,131.3
2022-12-04T05:34:28.896Z,142.6
2022-12-04T05:36:30.853Z,116.3
2022-12-04T05:38:32.799Z,116.6
2022-12-04T05:40:55.752Z,136.1
2022-12-04T05:44:59.674Z,119.1
2022-12-04T05:47:04.872Z,115.9
2022-12-04T05:49:06.772Z,109
2022-12-04T05:51:08.706Z,121.8
2022-12-04T05:53:10.700Z,134.4
2022-12-04T05:55:12.660Z,135
2022-12-04T05:57:14.615Z,119.1
2022-12-04T05:59:16.558Z,106.5
2022-12-04T06:01:21.687Z,118.8
2022-12-04T06:03:23.787Z,110.1
2022-12-04T06:05:25.624Z,130.7
2022-12-04T06:07:27.695Z,127.1
2022-12-04T06:09:29.536Z,119.1
2022-12-04T06:11:31.497Z,126.2
2022-12-04T06:13:33.487Z,135.7
2022-12-04T06:17:40.529Z,135.3
2022-12-04T06:19:42.487Z,120.1
2022-12-04T06:23:46.438Z,132.4
2022-12-04T06:25:48.409Z,112.1
2022-12-04T06:27:50.364Z,125.5
2022-12-04T06:29:55.999Z,119.7
2022-12-04T06:31:57.530Z,123.3
2022-12-04T06:33:59.410Z,124
2022-12-04T06:35:01.958Z,144.5
2022-12-04T06:37:03.917Z,115.1
2022-12-04T06:39:05.869Z,118.9
2022-12-04T06:43:12.989Z,133.5
2022-12-04T06:45:14.935Z,121.9
2022-12-04T06:47:16.896Z,131.8
2022-12-04T06:49:18.858Z,114.8
2022-12-04T06:51:20.815Z,139.3
2022-12-04T06:53:22.783Z,128.6
2022-12-04T06:55:24.757Z,118.1
2022-12-04T06:57:29.886Z,133.3
2022-12-04T06:59:31.818Z,126.9
2022-12-04T07:01:33.935Z,132.8
2022-12-04T07:03:35.750Z,117.7
2022-12-04T07:05:37.727Z,125.7
2022-12-04T07:07:39.740Z,130.5
2022-12-04T07:09:41.636Z,129.5
2022-12-04T07:11:46.763Z,121.9
2022-12-04T07:13:48.725Z,118.5
2022-12-04T07:15:50.695Z,110.6
2022-12-04T07:17:52.681Z,154.4
2022-12-04T07:19:54.838Z,140.5
2022-12-04T07:21:56.642Z,122.6
2022-12-04T07:23:58.556Z,127.2
2022-12-04T07:26:03.679Z,136.8
2022-12-04T07:28:05.638Z,122.5
2022-12-04T07:30:12.460Z,123.8
2022-12-04T07:33:12.122Z,133.5
2022-12-04T07:35:14.104Z,121.4
2022-12-04T07:37:16.052Z,129.2
2022-12-04T07:39:21.156Z,127.3
2022-12-04T07:41:23.123Z,130.4
2022-12-04T07:45:27.044Z,116.5
2022-12-04T07:49:30.953Z,137.1
2022-12-04T07:55:39.992Z,113.6
2022-12-04T07:57:42.143Z,144.3
2022-12-04T07:59:43.900Z,126.2
2022-12-04T08:01:45.941Z,120.5
2022-12-04T08:03:48.901Z,107.6
2022-12-04T08:05:49.806Z,127.7
2022-12-04T08:07:55.022Z,117.1
2022-12-04T08:14:00.844Z,116.5
2022-12-04T08:16:02.752Z,105.5
2022-12-04T08:18:04.725Z,114.5
2022-12-04T08:20:06.688Z,121.2
2022-12-04T08:22:11.844Z,111
2022-12-04T08:24:13.767Z,138.4
2022-12-04T08:26:15.691Z,135.3
2022-12-04T08:29:20.232Z,124.6
2022-12-04T08:33:24.162Z,142.9
2022-12-04T08:35:29.257Z,125.2
2022-12-04T08:37:31.236Z,151.1
2022-12-04T08:43:37.122Z,111.7
2022-12-04T08:47:42.556Z,114.6
2022-12-04T08:51:49.608Z,102.8
2022-12-04T08:53:51.565Z,100.8
2022-12-04T08:55:53.546Z,98
2022-12-04T08:57:55.522Z,94.4
2022-12-04T09:06:06.516Z,93.3
2022-12-04T09:08:08.572Z,104.3
2022-12-04T09:10:10.446Z,95.8
2022-12-04T09:12:12.407Z,88.5
2022-12-04T09:14:14.365Z,104.8
2022-12-04T09:18:21.457Z,86.8
2022-12-04T09:20:23.445Z,75.5
2022-12-04T09:22:25.392Z,95.9
2022-12-04T09:24:48.553Z,80.1
2022-12-04T09:26:50.500Z,92.6
2022-12-04T09:28:52.486Z,93.1
2022-12-04T09:30:57.679Z,82.2
2022-12-04T09:32:59.584Z,68.9
2022-12-04T09:35:01.554Z,86.3
2022-12-04T09:37:03.524Z,85.5
2022-12-04T09:39:05.643Z,91.7
2022-12-04T09:41:07.446Z,81.5
2022-12-04T09:43:09.418Z,71.6
2022-12-04T09:45:14.552Z,77.6
2022-12-04T09:47:16.514Z,75.4
2022-12-04T09:51:20.454Z,92.4
2022-12-04T09:53:22.419Z,69
2022-12-04T09:55:24.412Z,78.7
2022-12-04T09:57:26.366Z,72.8
2022-12-04T09:59:31.501Z,74.6
2022-12-04T10:01:33.456Z,80.7
2022-12-04T10:03:35.548Z,79
2022-12-04T10:05:37.366Z,69.8
2022-12-04T10:07:39.376Z,64.4
2022-12-04T10:09:41.366Z,67.7
2022-12-04T10:11:43.294Z,66.2
2022-12-04T10:13:48.409Z,55.9
2022-12-04T10:15:50.501Z,68.1
2022-12-04T10:17:52.368Z,66.7
2022-12-04T10:18:54.949Z,61.7
2022-12-04T10:25:00.835Z,48.4
2022-12-04T10:29:07.980Z,52.9
2022-12-04T10:31:09.948Z,56.9
2022-12-04T10:33:11.899Z,43.4
2022-12-04T10:35:13.901Z,50.5
2022-12-04T10:37:15.872Z,48.7
2022-12-04T10:39:17.858Z,50.3
2022-12-04T10:41:22.963Z,45.4
2022-12-04T10:43:24.954Z,45.7
2022-12-04T10:45:27.065Z,50.7
2022-12-04T10:47:28.932Z,42.9
2022-12-04T10:49:30.914Z,45.9
2022-12-04T10:51:32.917Z,40
2022-12-04T10:53:34.877Z,47.2
2022-12-04T10:55:40.011Z,45
2022-12-04T10:57:42.000Z,52.7
2022-12-04T10:59:43.973Z,43
2022-12-04T11:01:46.041Z,50
2022-12-04T11:03:47.935Z,50.6
2022-12-04T11:05:50.073Z,44.8
2022-12-04T11:07:51.923Z,51.8
2022-12-04T11:09:57.485Z,44.6
2022-12-04T11:11:59.013Z,41.9
2022-12-04T11:14:00.994Z,47.4
2022-12-04T11:15:03.539Z,40.1
2022-12-04T11:17:05.559Z,46.1
2022-12-04T11:19:07.535Z,55
2022-12-04T11:21:09.518Z,44.5
2022-12-04T11:23:14.646Z,46
2022-12-04T11:25:16.640Z,46.2
2022-12-04T11:27:18.658Z,48.4
2022-12-04T11:29:20.626Z,46.6
2022-12-04T11:31:22.684Z,46.2
2022-12-04T11:33:24.573Z,47.4
2022-12-04T11:35:26.562Z,44.2
2022-12-04T11:37:31.713Z,43.7
2022-12-04T11:39:33.680Z,46.4
2022-12-04T11:41:35.837Z,44.2
2022-12-04T11:43:37.642Z,49.6
2022-12-04T11:45:39.630Z,33.6
2022-12-04T11:47:41.610Z,45.2
2022-12-04T11:49:43.964Z,44.8
2022-12-04T11:51:48.727Z,43.2
2022-12-04T11:53:50.751Z,42.6
2022-12-04T11:55:52.694Z,54.7
2022-12-04T11:57:54.680Z,42.8
2022-12-04T11:59:56.959Z,44.7
2022-12-04T12:01:58.981Z,47.3
2022-12-04T12:04:00.648Z,51.6
2022-12-04T12:06:05.830Z,46.9
2022-12-04T12:08:07.793Z,53.6
2022-12-04T12:10:09.777Z,44.6
2022-12-04T12:11:12.349Z,46.2
2022-12-04T12:13:14.344Z,49.4
2022-12-04T12:15:16.325Z,52.9
2022-12-04T12:27:31.453Z,44
2022-12-04T12:29:33.429Z,48.9
2022-12-04T12:31:35.478Z,59.4
2022-12-04T12:35:42.547Z,74.5
2022-12-04T12:37:44.514Z,71.5
2022-12-04T12:39:46.525Z,61.9
2022-12-04T12:41:48.525Z,56.6
2022-12-04T12:45:52.657Z,57.4
2022-12-04T12:49:59.628Z,60.3
2022-12-04T12:52:01.614Z,58
2022-12-04T12:54:03.653Z,54
2022-12-04T12:56:05.571Z,57.4
2022-12-04T12:58:07.694Z,53.9
2022-12-04T13:00:09.497Z,62.5
2022-12-04T13:02:14.676Z,66.4
2022-12-04T13:04:16.564Z,66.2
2022-12-04T13:06:18.547Z,68.2
2022-12-04T13:08:35.564Z,60.4
2022-12-04T13:10:37.555Z,62
2022-12-04T13:12:39.560Z,55
2022-12-04T13:14:48.825Z,71.5
2022-12-04T13:16:46.804Z,73.3
2022-12-04T13:18:48.700Z,70.8
2022-12-04T13:20:50.698Z,82.4
2022-12-04T13:22:52.684Z,77.2
2022-12-04T13:24:54.688Z,66.4
2022-12-04T13:26:56.643Z,79.3
2022-12-04T13:29:01.816Z,78.9
2022-12-04T13:31:03.828Z,89.8
2022-12-04T13:33:05.812Z,80.9
2022-12-04T13:35:07.802Z,80
2022-12-04T13:37:09.785Z,80.1
2022-12-04T13:39:11.777Z,125.2
2022-12-04T13:41:13.762Z,97.3
2022-12-04T13:43:18.921Z,101.9
2022-12-04T13:45:20.896Z,96.2
2022-12-04T13:47:22.906Z,103.1
2022-12-04T13:49:24.904Z,107.5
2022-12-04T13:53:28.861Z,95.6
2022-12-04T13:55:30.845Z,94.2
2022-12-04T13:57:35.996Z,102
2022-12-04T13:59:37.999Z,84.9
2022-12-04T14:01:40.093Z,95.5
2022-12-04T14:02:42.609Z,92.2
2022-12-04T14:04:44.545Z,84.5
2022-12-04T14:06:46.544Z,81.3
2022-12-04T14:10:53.792Z,94.2
2022-12-04T14:16:59.823Z,88.3
2022-12-04T14:21:03.731Z,93
2022-12-04T14:25:10.871Z,82.9
2022-12-04T14:27:12.955Z,82.8
2022-12-04T14:33:18.818Z,91.1
2022-12-04T14:35:20.767Z,88.2
2022-12-04T14:37:22.788Z,91.8
2022-12-04T14:41:31.429Z,92.3
2022-12-04T14:43:33.404Z,88.5
2022-12-04T14:45:35.411Z,106.7
2022-12-04T14:49:39.389Z,94.4
2022-12-04T14:51:41.371Z,79.8
2022-12-04T14:53:46.510Z,94
2022-12-04T14:55:48.493Z,79.5
2022-12-04T14:57:50.500Z,81.1
2022-12-04T15:00:55.095Z,93.2
2022-12-04T15:02:57.147Z,76.1
2022-12-04T15:04:59.401Z,80.3
2022-12-04T15:07:04.195Z,81.1
2022-12-04T15:09:06.186Z,71.4
2022-12-04T15:11:08.153Z,90.5
2022-12-04T15:13:10.158Z,80.2
2022-12-04T15:15:12.137Z,87.9
2022-12-04T15:17:14.127Z,85.2
2022-12-04T15:19:16.854Z,81.3
2022-12-04T15:25:25.239Z,85.1
2022-12-04T15:27:32.107Z,75.3
2022-12-04T15:29:29.259Z,76.7
2022-12-04T15:31:31.461Z,69
2022-12-04T15:33:33.224Z,77.4
2022-12-04T15:35:38.350Z,80.6
2022-12-04T15:37:40.354Z,81.2
2022-12-04T15:41:44.483Z,97
2022-12-04T15:43:46.352Z,81.8
2022-12-04T15:45:48.343Z,74.4
2022-12-04T15:49:55.999Z,99.1
2022-12-04T15:51:57.490Z,69.6
2022-12-04T15:53:59.488Z,83.1
2022-12-04T15:55:02.066Z,88.8
2022-12-04T15:57:04.082Z,67.7
2022-12-04T15:59:06.054Z,77.7
2022-12-04T16:01:08.120Z,78.8
2022-12-04T16:03:13.268Z,75.4
2022-12-04T16:05:15.274Z,70.8
2022-12-04T16:07:17.254Z,71.3
2022-12-04T16:09:19.253Z,76.7
2022-12-04T16:13:23.257Z,87
2022-12-04T16:15:25.265Z,77.8
2022-12-04T16:21:34.432Z,72.8
2022-12-04T16:23:36.433Z,80.6
2022-12-04T16:31:47.653Z,70.4
2022-12-04T16:33:49.622Z,60
2022-12-04T16:35:51.661Z,75.1
2022-12-04T16:39:55.666Z,53.3
2022-12-04T16:41:57.657Z,78.2
2022-12-04T16:46:04.917Z,70.5
2022-12-04T16:48:06.886Z,67.5
2022-12-04T16:50:08.883Z,75.9
2022-12-04T16:52:31.746Z,72.5
2022-12-04T16:54:33.776Z,71.8
2022-12-04T16:56:35.784Z,74.2
2022-12-04T16:58:40.949Z,104.3
2022-12-04T17:00:42.965Z,67.6
2022-12-04T17:02:44.966Z,75.5
2022-12-04T17:04:47.000Z,78.5
2022-12-04T17:06:48.999Z,61.7
2022-12-04T17:08:51.019Z,101
2022-12-04T17:10:53.021Z,71.4
2022-12-04T17:15:00.239Z,88.8
2022-12-04T17:17:02.250Z,87.7
2022-12-04T17:19:04.318Z,81.7
2022-12-04T17:21:06.232Z,93
2022-12-04T17:23:08.250Z,94.6
2022-12-04T17:27:15.438Z,99.9
2022-12-04T17:29:17.540Z,90.5
2022-12-04T17:31:19.515Z,95
2022-12-04T17:33:21.485Z,93.2
2022-12-04T17:35:23.480Z,102.6
2022-12-04T17:37:25.498Z,92.6
2022-12-04T17:39:27.515Z,98.7
2022-12-04T17:43:34.681Z,108.5
2022-12-04T17:46:39.391Z,98.9
2022-12-04T17:48:41.296Z,97.4
2022-12-04T17:50:43.307Z,116.7
2022-12-04T17:52:45.530Z,102.2
2022-12-04T17:54:50.724Z,87.7
2022-12-04T17:56:57.618Z,101.9
2022-12-04T17:58:54.718Z,91
2022-12-04T18:00:56.772Z,101
2022-12-04T18:02:58.783Z,95.3
2022-12-04T18:05:00.756Z,109.6
2022-12-04T18:07:02.744Z,93.1
2022-12-04T18:09:07.899Z,105.6
2022-12-04T18:11:09.907Z,97
2022-12-04T18:15:13.965Z,104.4
2022-12-04T18:17:15.978Z,108.5
2022-12-04T18:19:17.973Z,102.3
2022-12-04T18:23:25.213Z,105.7
2022-12-04T18:29:31.191Z,110.1
2022-12-04T18:33:35.203Z,104.7
2022-12-04T18:35:37.211Z,103.4
2022-12-04T18:41:46.383Z,90.1
2022-12-04T18:42:48.961Z,97
2022-12-04T18:44:50.963Z,116.2
2022-12-04T18:48:55.316Z,82.3
2022-12-04T18:51:00.472Z,103.3
2022-12-04T18:55:04.486Z,104.5
2022-12-04T18:57:06.485Z,110.8
2022-12-04T18:59:08.488Z,101.2
2022-12-04T19:01:10.538Z,107
2022-12-04T19:03:12.527Z,111.1
2022-12-04T19:05:17.660Z,105.7
2022-12-04T19:07:19.655Z,121
2022-12-04T19:09:23.213Z,120.3
2022-12-04T19:13:25.705Z,102.7
2022-12-04T19:15:27.708Z,104
2022-12-04T19:17:29.710Z,102.4
2022-12-04T19:19:34.892Z,117.3
2022-12-04T19:21:36.922Z,106.3
2022-12-04T19:23:38.920Z,125.8
2022-12-04T19:25:40.928Z,104
2022-12-04T19:27:42.935Z,103
2022-12-04T19:29:44.932Z,108.4
2022-12-04T19:31:47.042Z,108.8
2022-12-04T19:35:54.113Z,112.2
2022-12-04T19:37:56.121Z,108.2
2022-12-04T19:38:58.667Z,95.2
2022-12-04T19:41:00.709Z,109.8
2022-12-04T19:43:03.223Z,125.1
2022-12-04T19:45:04.714Z,126
2022-12-04T19:47:09.887Z,109.2
2022-12-04T19:49:11.880Z,119.9
2022-12-04T19:51:13.872Z,108.6
2022-12-04T19:53:15.907Z,106.6
2022-12-04T19:55:17.905Z,117.7
2022-12-04T19:57:19.916Z,106.7
2022-12-04T19:59:21.915Z,123.8
2022-12-04T20:01:27.203Z,111.4
2022-12-04T20:03:29.113Z,120.6
2022-12-04T20:05:31.093Z,111.7
2022-12-04T20:07:33.153Z,123.1
2022-12-04T20:09:35.117Z,112.3
2022-12-04T20:11:37.138Z,125
2022-12-04T20:13:39.140Z,128
2022-12-04T20:15:44.323Z,103.2
2022-12-04T20:17:46.286Z,118.3
2022-12-04T20:19:48.328Z,118
2022-12-04T20:25:54.329Z,101.4
2022-12-04T20:27:56.349Z,97.7
2022-12-04T20:30:03.046Z,121.1
2022-12-04T20:32:05.004Z,108.8
2022-12-04T20:34:07.027Z,106.9
2022-12-04T20:36:29.805Z,112.1
2022-12-04T20:38:31.798Z,95.7
2022-12-04T20:40:33.850Z,105.4
2022-12-04T20:42:39.033Z,104.7
2022-12-04T20:44:41.045Z,108.3
2022-12-04T20:46:43.196Z,124.1
2022-12-04T20:48:45.062Z,117.2
2022-12-04T20:50:47.087Z,108.5
2022-12-04T20:52:49.129Z,106.6
2022-12-04T20:54:51.157Z,115
2022-12-04T20:56:56.300Z,105.1
2022-12-04T20:58:58.332Z,99
2022-12-04T21:01:00.414Z,114.5
2022-12-04T21:03:02.415Z,116.3
2022-12-04T21:05:04.339Z,98.8
2022-12-04T21:07:06.349Z,102.4
2022-12-04T21:09:08.397Z,110.3
2022-12-04T21:11:13.551Z,103.9
2022-12-04T21:13:15.558Z,104.7
2022-12-04T21:15:17.592Z,97.2
2022-12-04T21:17:19.744Z,101
2022-12-04T21:23:25.638Z,89.6
2022-12-04T21:25:30.807Z,108.9
2022-12-04T21:27:32.817Z,98.4
2022-12-04T21:29:34.861Z,132.4
2022-12-04T21:30:37.429Z,105.4
2022-12-04T21:32:39.426Z,103.7
2022-12-04T21:34:41.432Z,117.8
2022-12-04T21:36:43.475Z,101.5
2022-12-04T21:38:48.657Z,109.7
2022-12-04T21:40:50.711Z,98.9
2022-12-04T21:42:52.684Z,102.1
2022-12-04T21:44:54.841Z,99.4
2022-12-04T21:46:56.819Z,113.9
2022-12-04T21:48:58.734Z,93.6
2022-12-04T21:51:00.761Z,94.2
2022-12-04T21:53:05.949Z,105.8
2022-12-04T21:55:08.089Z,94.1
2022-12-04T21:57:09.983Z,99.2
2022-12-04T21:59:11.984Z,103.1
2022-12-04T22:01:14.058Z,104.5
2022-12-04T22:03:16.137Z,100.9
2022-12-04T22:05:18.205Z,126.4
2022-12-04T22:07:23.225Z,120.5
2022-12-04T22:09:25.252Z,99.8
2022-12-04T22:11:27.236Z,117.7
2022-12-04T22:13:29.274Z,95.3
2022-12-04T22:15:31.298Z,95.2
2022-12-04T22:17:33.304Z,106.5
2022-12-04T22:19:35.334Z,106
2022-12-04T22:21:40.535Z,111.8
2022-12-04T22:23:42.526Z,99.8
2022-12-04T22:25:44.569Z,97.6
2022-12-04T22:26:47.175Z,93.7
2022-12-04T22:30:51.230Z,84.4
2022-12-04T22:32:53.197Z,85.8
2022-12-04T22:34:58.363Z,93.1
2022-12-04T22:37:00.393Z,86.4
2022-12-04T22:39:10.671Z,102
2022-12-04T22:41:04.421Z,84.6
2022-12-04T22:43:06.447Z,79.9
2022-12-04T22:45:08.475Z,88.8
2022-12-04T22:47:10.566Z,91.9
2022-12-04T22:49:15.647Z,90.5
2022-12-04T22:51:17.673Z,91.3
2022-12-04T22:53:19.673Z,101.1
2022-12-04T22:55:21.709Z,91.8
2022-12-04T22:57:23.737Z,84.9
2022-12-04T22:59:25.771Z,98.9
2022-12-04T23:01:27.855Z,90.2
2022-12-04T23:03:33.025Z,93.4
2022-12-04T23:05:35.005Z,81.9
2022-12-04T23:07:37.103Z,82.4
2022-12-04T23:09:39.042Z,91.4
2022-12-04T23:11:41.071Z,90.7
2022-12-04T23:13:43.084Z,89.5
2022-12-04T23:15:45.140Z,86.8
2022-12-04T23:17:50.284Z,88.4
2022-12-04T23:19:52.283Z,93.4
2022-12-04T23:22:56.905Z,92.5
2022-12-04T23:24:58.927Z,90.2
2022-12-04T23:27:00.987Z,85.9
2022-12-04T23:29:03.000Z,85.3
2022-12-04T23:31:08.220Z,96.2
2022-12-04T23:33:10.205Z,77.7
2022-12-04T23:35:12.228Z,94
2022-12-04T23:37:14.273Z,91.1
2022-12-04T23:39:16.282Z,105.4
2022-12-04T23:41:18.340Z,85.4
2022-12-04T23:43:20.346Z,89.3
2022-12-04T23:45:25.567Z,90.5
2022-12-04T23:47:27.561Z,89.5
2022-12-04T23:49:29.580Z,79.9
2022-12-04T23:53:33.668Z,90.2
2022-12-04T23:55:35.692Z,85.2
2022-12-04T23:57:37.724Z,76.9
2022-12-04T23:59:42.882Z,79.8
